Observation data for Aspermont on 06/13/2019      Previous  Date  Next       Current Mesonet Observations  Soil Data  Daily Summary Page  Observations in Plain Language
KASR 130500Z 13002KT 17/14 A3015 RMK A01 T01680139  RH  085%=      5-min Rain = 0
KASR 130505Z 15001KT 16/14 A3015 RMK A01 T01640139  RH  087%=      5-min Rain = 0
KASR 130510Z 15001KT 16/14 A3015 RMK A01 T01600138  RH  089%=      5-min Rain = 0
KASR 130515Z 16001KT 16/14 A3015 RMK A01 T01580139  RH  090%=      5-min Rain = 0
KASR 130520Z 21000KT 16/14 A3015 RMK A01 T01560138  RH  091%=      5-min Rain = 0
KASR 130525Z 24001KT 16/14 A3015 RMK A01 T01550138  RH  092%=      5-min Rain = 0
KASR 130530Z 24001KT 15/14 A3015 RMK A01 T01540138  RH  092%=      5-min Rain = 0
KASR 130535Z 24001KT 15/14 A3015 RMK A01 T01510136  RH  093%=      5-min Rain = 0
KASR 130540Z 26001KT 15/14 A3015 RMK A01 T01480135  RH  094%=      5-min Rain = 0
KASR 130545Z 29002KT 15/13 A3015 RMK A01 T01450133  RH  095%=      5-min Rain = 0
KASR 130550Z 29002KT 14/13 A3015 RMK A01 T01440133  RH  095%=      5-min Rain = 0
KASR 130555Z 29003KT 14/13 A3015 RMK A01 T01430133  RH  095%=      5-min Rain = 0
KASR 130600Z 29003KT 14/13 A3015 RMK A01 T01440134  RH  096%=      5-min Rain = 0
KASR 130605Z 29003KT 14/13 A3015 RMK A01 T01440133  RH  095%=      5-min Rain = 0
KASR 130610Z 29003KT 14/13 A3014 RMK A01 T01440134  RH  095%=      5-min Rain = 0
KASR 130615Z 29003KT 14/13 A3014 RMK A01 T01440133  RH  095%=      5-min Rain = 0
KASR 130620Z 29003KT 14/13 A3015 RMK A01 T01440133  RH  095%=      5-min Rain = 0
KASR 130625Z 29002KT 15/14 A3015 RMK A01 T01450135  RH  096%=      5-min Rain = 0
KASR 130630Z 29002KT 15/13 A3015 RMK A01 T01450134  RH  095%=      5-min Rain = 0
KASR 130635Z 29002KT 14/13 A3015 RMK A01 T01440132  RH  095%=      5-min Rain = 0
KASR 130640Z 29002KT 14/13 A3015 RMK A01 T01420131  RH  095%=      5-min Rain = 0
KASR 130645Z 29002KT 15/13 A3015 RMK A01 T01450134  RH  095%=      5-min Rain = 0
KASR 130650Z 29001KT 14/13 A3015 RMK A01 T01420130  RH  094%=      5-min Rain = 0
KASR 130655Z 29002KT 14/13 A3015 RMK A01 T01380128  RH  095%=      5-min Rain = 0
KASR 130700Z 27002KT 14/13 A3015 RMK A01 T01410132  RH  097%=      5-min Rain = 0
KASR 130705Z 25003KT 15/14 A3015 RMK A01 T01460136  RH  096%=      5-min Rain = 0
KASR 130710Z 24002KT 15/13 A3015 RMK A01 T01460133  RH  094%=      5-min Rain = 0
KASR 130715Z 24002KT 15/13 A3015 RMK A01 T01460134  RH  094%=      5-min Rain = 0
KASR 130720Z 27002KT 14/13 A3015 RMK A01 T01420129  RH  094%=      5-min Rain = 0
KASR 130725Z 29001KT 14/13 A3015 RMK A01 T01380127  RH  095%=      5-min Rain = 0
KASR 130730Z 29001KT 14/13 A3015 RMK A01 T01350126  RH  096%=      5-min Rain = 0
KASR 130735Z 29001KT 13/13 A3015 RMK A01 T01330125  RH  097%=      5-min Rain = 0
KASR 130740Z 29000KT 13/12 A3015 RMK A01 T01320124  RH  097%=      5-min Rain = 0
KASR 130745Z 34000KT 14/13 A3014 RMK A01 T01370131  RH  098%=      5-min Rain = 0
KASR 130750Z 35002KT 14/13 A3014 RMK A01 T01370131  RH  098%=      5-min Rain = 0
KASR 130755Z 00001KT 14/13 A3014 RMK A01 T01350128  RH  097%=      5-min Rain = 0
KASR 130800Z 03001KT 13/13 A3014 RMK A01 T01340127  RH  097%=      5-min Rain = 0
KASR 130805Z 05002KT 13/13 A3014 RMK A01 T01340127  RH  097%=      5-min Rain = 0
KASR 130810Z 06003KT 13/12 A3014 RMK A01 T01320124  RH  097%=      5-min Rain = 0
KASR 130815Z 07003KT 13/12 A3014 RMK A01 T01310124  RH  098%=      5-min Rain = 0
KASR 130820Z 07003KT 13/13 A3014 RMK A01 T01320126  RH  098%=      5-min Rain = 0
KASR 130825Z 07003KT 13/12 A3014 RMK A01 T01300123  RH  098%=      5-min Rain = 0
KASR 130830Z 07003KT 13/12 A3014 RMK A01 T01290122  RH  098%=      5-min Rain = 0
KASR 130835Z 07003KT 13/12 A3014 RMK A01 T01270120  RH  098%=      5-min Rain = 0
KASR 130840Z 07002KT 13/12 A3014 RMK A01 T01260120  RH  098%=      5-min Rain = 0
KASR 130845Z 07001KT 13/12 A3014 RMK A01 T01270121  RH  098%=      5-min Rain = 0
KASR 130850Z 15001KT 13/13 A3013 RMK A01 T01310126  RH  098%=      5-min Rain = 0
KASR 130855Z 16000KT 13/13 A3014 RMK A01 T01320126  RH  098%=      5-min Rain = 0
KASR 130900Z 00000KT 13/12 A3014 RMK A01 T01310123  RH  097%=      5-min Rain = 0
KASR 130905Z 00000KT 13/12 A3014 RMK A01 T01280120  RH  097%=      5-min Rain = 0
KASR 130910Z 00000KT 12/12 A3013 RMK A01 T01240116  RH  097%=      5-min Rain = 0
KASR 130915Z 16000KT 12/12 A3013 RMK A01 T01220115  RH  097%=      5-min Rain = 0
KASR 130920Z 15001KT 12/12 A3013 RMK A01 T01220115  RH  098%=      5-min Rain = 0
KASR 130925Z 15001KT 12/12 A3013 RMK A01 T01220116  RH  098%=      5-min Rain = 0
KASR 130930Z 15001KT 12/12 A3014 RMK A01 T01210116  RH  098%=      5-min Rain = 0
KASR 130935Z 15001KT 12/12 A3014 RMK A01 T01210115  RH  098%=      5-min Rain = 0
KASR 130940Z 15000KT 12/12 A3014 RMK A01 T01210115  RH  098%=      5-min Rain = 0
KASR 130945Z 15001KT 12/12 A3014 RMK A01 T01210116  RH  098%=      5-min Rain = 0
KASR 130950Z 20001KT 12/12 A3014 RMK A01 T01210116  RH  099%=      5-min Rain = 0
KASR 130955Z 28001KT 13/12 A3014 RMK A01 T01250120  RH  099%=      5-min Rain = 0
KASR 131000Z 34002KT 13/12 A3014 RMK A01 T01250120  RH  098%=      5-min Rain = 0
KASR 131005Z 33003KT 13/12 A3015 RMK A01 T01250120  RH  098%=      5-min Rain = 0
KASR 131010Z 33003KT 13/12 A3015 RMK A01 T01260121  RH  098%=      5-min Rain = 0
KASR 131015Z 33002KT 13/12 A3015 RMK A01 T01280122  RH  098%=      5-min Rain = 0
KASR 131020Z 31002KT 13/12 A3015 RMK A01 T01290124  RH  098%=      5-min Rain = 0
KASR 131025Z 28002KT 13/12 A3016 RMK A01 T01300124  RH  098%=      5-min Rain = 0
KASR 131030Z 29002KT 13/13 A3016 RMK A01 T01310126  RH  098%=      5-min Rain = 0
KASR 131035Z 30002KT 13/13 A3016 RMK A01 T01310125  RH  098%=      5-min Rain = 0
KASR 131040Z 30002KT 13/12 A3015 RMK A01 T01310124  RH  098%=      5-min Rain = 0
KASR 131045Z 30002KT 13/12 A3015 RMK A01 T01290123  RH  098%=      5-min Rain = 0
KASR 131050Z 30001KT 13/12 A3015 RMK A01 T01270120  RH  097%=      5-min Rain = 0
KASR 131055Z 30001KT 13/12 A3016 RMK A01 T01270121  RH  098%=      5-min Rain = 0
KASR 131100Z 30000KT 13/12 A3016 RMK A01 T01270122  RH  098%=      5-min Rain = 0
KASR 131105Z 30000KT 13/12 A3016 RMK A01 T01250119  RH  098%=      5-min Rain = 0
KASR 131110Z 30000KT 12/12 A3016 RMK A01 T01240117  RH  098%=      5-min Rain = 0
KASR 131115Z 30000KT 12/12 A3016 RMK A01 T01210115  RH  098%=      5-min Rain = 0
KASR 131120Z 24000KT 12/12 A3016 RMK A01 T01210116  RH  098%=      5-min Rain = 0
KASR 131125Z 19001KT 12/12 A3017 RMK A01 T01230118  RH  099%=      5-min Rain = 0
KASR 131130Z 19001KT 12/12 A3017 RMK A01 T01210116  RH  098%=      5-min Rain = 0
KASR 131135Z 19000KT 12/12 A3017 RMK A01 T01200115  RH  098%=      5-min Rain = 0
KASR 131140Z 19000KT 12/11 A3017 RMK A01 T01190114  RH  098%=      5-min Rain = 0
KASR 131145Z 22000KT 12/11 A3017 RMK A01 T01190114  RH  099%=      5-min Rain = 0
KASR 131150Z 29001KT 12/12 A3017 RMK A01 T01200115  RH  099%=      5-min Rain = 0
KASR 131155Z 29001KT 12/12 A3017 RMK A01 T01210116  RH  099%=      5-min Rain = 0
KASR 131200Z 29001KT 12/12 A3017 RMK A01 T01230119  RH  099%=      5-min Rain = 0
KASR 131205Z 29001KT 12/12 A3018 RMK A01 T01240119  RH  099%=      5-min Rain = 0
KASR 131210Z 29000KT 13/12 A3017 RMK A01 T01250120  RH  098%=      5-min Rain = 0
KASR 131215Z 29000KT 13/12 A3017 RMK A01 T01250120  RH  098%=      5-min Rain = 0
KASR 131220Z 29000KT 13/12 A3018 RMK A01 T01270122  RH  098%=      5-min Rain = 0
KASR 131225Z 29001KT 13/13 A3018 RMK A01 T01340130  RH  099%=      5-min Rain = 0
KASR 131230Z 30002KT 14/14 A3018 RMK A01 T01400135  RH  099%=      5-min Rain = 0
KASR 131235Z 31001KT 15/14 A3018 RMK A01 T01450138  RH  097%=      5-min Rain = 0
KASR 131240Z 29001KT 15/14 A3018 RMK A01 T01490138  RH  095%=      5-min Rain = 0
KASR 131245Z 29001KT 15/14 A3018 RMK A01 T01520138  RH  093%=      5-min Rain = 0
KASR 131250Z 29001KT 16/14 A3018 RMK A01 T01550139  RH  092%=      5-min Rain = 0
KASR 131255Z 30002KT 16/14 A3018 RMK A01 T01560139  RH  091%=      5-min Rain = 0
KASR 131300Z 32002KT 16/14 A3018 RMK A01 T01580142  RH  092%=      5-min Rain = 0
KASR 131305Z 33002KT 16/14 A3018 RMK A01 T01620144  RH  091%=      5-min Rain = 0
KASR 131310Z 31002KT 17/14 A3019 RMK A01 T01660144  RH  089%=      5-min Rain = 0
KASR 131315Z 31001KT 17/15 A3018 RMK A01 T01690145  RH  088%=      5-min Rain = 0
KASR 131320Z 00000KT 18/15 A3018 RMK A01 T01760148  RH  085%=      5-min Rain = 0
KASR 131325Z 31000KT 19/15 A3018 RMK A01 T01850150  RH  082%=      5-min Rain = 0
KASR 131330Z 28000KT 19/15 A3019 RMK A01 T01870150  RH  081%=      5-min Rain = 0
KASR 131335Z 22001KT 19/15 A3019 RMK A01 T01920151  RH  079%=      5-min Rain = 0
KASR 131340Z 19002KT 20/15 A3018 RMK A01 T01970153  RH  078%=      5-min Rain = 0
KASR 131345Z 20003KT 20/15 A3019 RMK A01 T02020152  RH  075%=      5-min Rain = 0
KASR 131350Z 19003KT 21/15 A3019 RMK A01 T02060153  RH  073%=      5-min Rain = 0
KASR 131355Z 20004KT 21/15 A3019 RMK A01 T02080149  RH  071%=      5-min Rain = 0
KASR 131400Z 19003KT 21/15 A3019 RMK A01 T02120150  RH  069%=      5-min Rain = 0
KASR 131405Z 19004KT 22/15 A3019 RMK A01 T02160149  RH  067%=      5-min Rain = 0
KASR 131410Z 18004KT 22/15 A3019 RMK A01 T02210150  RH  065%=      5-min Rain = 0
KASR 131415Z 17006KT 23/14 A3019 RMK A01 T02250143  RH  061%=      5-min Rain = 0
KASR 131420Z 17006KT 23/15 A3019 RMK A01 T02270145  RH  061%=      5-min Rain = 0
KASR 131425Z 17005KT 23/15 A3019 RMK A01 T02310149  RH  061%=      5-min Rain = 0
KASR 131430Z 17006KT 23/15 A3019 RMK A01 T02340149  RH  060%=      5-min Rain = 0
KASR 131435Z 16005KT 24/15 A3019 RMK A01 T02380149  RH  059%=      5-min Rain = 0
KASR 131440Z 15007KT 24/14 A3019 RMK A01 T02400142  RH  056%=      5-min Rain = 0
KASR 131445Z 15007KT 24/14 A3019 RMK A01 T02390137  RH  054%=      5-min Rain = 0
KASR 131450Z 15007KT 24/13 A3019 RMK A01 T02410134  RH  052%=      5-min Rain = 0
KASR 131455Z 15007KT 25/13 A3019 RMK A01 T02450133  RH  051%=      5-min Rain = 0
KASR 131500Z 16006KT 25/13 A3019 RMK A01 T02480134  RH  050%=      5-min Rain = 0
KASR 131505Z 17007KT 25/13 A3019 RMK A01 T02500134  RH  049%=      5-min Rain = 0
KASR 131510Z 17007KT 25/13 A3019 RMK A01 T02500130  RH  048%=      5-min Rain = 0
KASR 131515Z 17007KT 25/13 A3019 RMK A01 T02510133  RH  049%=      5-min Rain = 0
KASR 131520Z 16008KT 25/13 A3018 RMK A01 T02520131  RH  048%=      5-min Rain = 0
KASR 131525Z 16006KT 26/14 A3018 RMK A01 T02560137  RH  049%=      5-min Rain = 0
KASR 131530Z 15006KT 26/14 A3018 RMK A01 T02570137  RH  048%=      5-min Rain = 0
KASR 131535Z 16007KT 26/13 A3018 RMK A01 T02560132  RH  047%=      5-min Rain = 0
KASR 131540Z 16007KT 26/13 A3018 RMK A01 T02580130  RH  046%=      5-min Rain = 0
KASR 131545Z 14006KT 26/13 A3018 RMK A01 T02590128  RH  045%=      5-min Rain = 0
KASR 131550Z 15007KT 26/13 A3018 RMK A01 T02610127  RH  044%=      5-min Rain = 0
KASR 131555Z 15008KT 26/13 A3018 RMK A01 T02610126  RH  044%=      5-min Rain = 0
KASR 131600Z 15008KT 26/13 A3017 RMK A01 T02620129  RH  045%=      5-min Rain = 0
KASR 131605Z 15008G13KT 26/13 A3017 RMK A01 T02620132  RH  045%=      5-min Rain = 0
KASR 131610Z 15007KT 27/13 A3017 RMK A01 T02660134  RH  045%=      5-min Rain = 0
KASR 131615Z 15008G13KT 27/13 A3017 RMK A01 T02680127  RH  042%=      5-min Rain = 0
KASR 131620Z 15009KT 27/12 A3017 RMK A01 T02670123  RH  042%=      5-min Rain = 0
KASR 131625Z 17009KT 27/13 A3016 RMK A01 T02700125  RH  041%=      5-min Rain = 0
KASR 131630Z 16007KT 27/12 A3016 RMK A01 T02710121  RH  040%=      5-min Rain = 0
KASR 131635Z 17009KT 27/12 A3016 RMK A01 T02740122  RH  039%=      5-min Rain = 0
KASR 131640Z 16008KT 27/12 A3016 RMK A01 T02730120  RH  039%=      5-min Rain = 0
KASR 131645Z 16008G13KT 27/12 A3016 RMK A01 T02730116  RH  038%=      5-min Rain = 0
KASR 131650Z 16008KT 28/13 A3016 RMK A01 T02800127  RH  040%=      5-min Rain = 0
KASR 131655Z 17010KT 28/12 A3016 RMK A01 T02760121  RH  039%=      5-min Rain = 0
KASR 131700Z 16008G13KT 28/12 A3016 RMK A01 T02760121  RH  039%=      5-min Rain = 0
KASR 131705Z 15008KT 28/12 A3016 RMK A01 T02760116  RH  038%=      5-min Rain = 0
KASR 131710Z 16008G13KT 28/12 A3016 RMK A01 T02780124  RH  039%=      5-min Rain = 0
KASR 131715Z 15006KT 28/12 A3016 RMK A01 T02820119  RH  037%=      5-min Rain = 0
KASR 131720Z 15008KT 28/12 A3016 RMK A01 T02810117  RH  037%=      5-min Rain = 0
KASR 131725Z 14006KT 28/12 A3015 RMK A01 T02830121  RH  038%=      5-min Rain = 0
KASR 131730Z 16010KT 28/12 A3015 RMK A01 T02830116  RH  036%=      5-min Rain = 0
KASR 131735Z 14008KT 28/12 A3015 RMK A01 T02810118  RH  037%=      5-min Rain = 0
KASR 131740Z 16007KT 29/12 A3015 RMK A01 T02850119  RH  037%=      5-min Rain = 0
KASR 131745Z 18007KT 29/12 A3015 RMK A01 T02870124  RH  037%=      5-min Rain = 0
KASR 131750Z 18010KT 29/12 A3015 RMK A01 T02870120  RH  036%=      5-min Rain = 0
KASR 131755Z 16007G12KT 29/11 A3015 RMK A01 T02850114  RH  035%=      5-min Rain = 0
KASR 131800Z 15007KT 29/12 A3014 RMK A01 T02850119  RH  037%=      5-min Rain = 0
KASR 131805Z 16008KT 29/12 A3014 RMK A01 T02880118  RH  036%=      5-min Rain = 0
KASR 131810Z 13007G13KT 29/12 A3014 RMK A01 T02860118  RH  036%=      5-min Rain = 0
KASR 131815Z 15008G13KT 29/12 A3014 RMK A01 T02860118  RH  036%=      5-min Rain = 0
KASR 131820Z 17008KT 29/11 A3014 RMK A01 T02880113  RH  034%=      5-min Rain = 0
KASR 131825Z 12006KT 29/12 A3014 RMK A01 T02850119  RH  036%=      5-min Rain = 0
KASR 131830Z 15008KT 29/12 A3013 RMK A01 T02870117  RH  036%=      5-min Rain = 0
KASR 131835Z 16007KT 29/12 A3013 RMK A01 T02880117  RH  035%=      5-min Rain = 0
KASR 131840Z 15008KT 29/12 A3013 RMK A01 T02920120  RH  035%=      5-min Rain = 0
KASR 131845Z 16007KT 29/11 A3013 RMK A01 T02920114  RH  034%=      5-min Rain = 0
KASR 131850Z 15008G13KT 29/12 A3012 RMK A01 T02920118  RH  035%=      5-min Rain = 0
KASR 131855Z 17009G14KT 29/11 A3012 RMK A01 T02940114  RH  034%=      5-min Rain = 0
KASR 131900Z 17010G15KT 30/12 A3012 RMK A01 T02950116  RH  034%=      5-min Rain = 0
KASR 131905Z 18010G15KT 30/12 A3012 RMK A01 T02960119  RH  034%=      5-min Rain = 0
KASR 131910Z 16008KT 30/12 A3011 RMK A01 T02960116  RH  034%=      5-min Rain = 0
KASR 131915Z 16009G15KT 30/12 A3011 RMK A01 T02960121  RH  035%=      5-min Rain = 0
KASR 131920Z 17010KT 30/12 A3011 RMK A01 T02960116  RH  034%=      5-min Rain = 0
KASR 131925Z 16010KT 29/11 A3011 RMK A01 T02940113  RH  033%=      5-min Rain = 0
KASR 131930Z 16010KT 30/12 A3011 RMK A01 T02950118  RH  034%=      5-min Rain = 0
KASR 131935Z 15010KT 30/12 A301 RMK A01 T02950120  RH  035%=      5-min Rain = 0
KASR 131940Z 16009G14KT 30/12 A301 RMK A01 T02970118  RH  034%=      5-min Rain = 0
KASR 131945Z 16007KT 30/13 A301 RMK A01 T03000125  RH  035%=      5-min Rain = 0
KASR 131950Z 15010G15KT 30/12 A3009 RMK A01 T03000123  RH  034%=      5-min Rain = 0
KASR 131955Z 14010KT 30/12 A3009 RMK A01 T02950121  RH  035%=      5-min Rain = 0
KASR 132000Z 15009G14KT 30/13 A3009 RMK A01 T02980125  RH  035%=      5-min Rain = 0
KASR 132005Z 15010KT 30/13 A3009 RMK A01 T03010128  RH  035%=      5-min Rain = 0
KASR 132010Z 13008G14KT 30/13 A3009 RMK A01 T02990129  RH  036%=      5-min Rain = 0
KASR 132015Z 16008G15KT 30/13 A3009 RMK A01 T03030132  RH  036%=      5-min Rain = 0
KASR 132020Z 16011KT 30/13 A3009 RMK A01 T03030127  RH  035%=      5-min Rain = 0
KASR 132025Z 16008KT 30/13 A3008 RMK A01 T03020128  RH  035%=      5-min Rain = 0
KASR 132030Z 16009G15KT 30/13 A3008 RMK A01 T03020127  RH  035%=      5-min Rain = 0
KASR 132035Z 15010G15KT 30/13 A3008 RMK A01 T03010128  RH  035%=      5-min Rain = 0
KASR 132040Z 16011G18KT 30/13 A3008 RMK A01 T03030129  RH  035%=      5-min Rain = 0
KASR 132045Z 14010G15KT 30/13 A3007 RMK A01 T03030128  RH  035%=      5-min Rain = 0
KASR 132050Z 14008KT 30/13 A3007 RMK A01 T03010131  RH  036%=      5-min Rain = 0
KASR 132055Z 14010G16KT 30/13 A3007 RMK A01 T03030132  RH  036%=      5-min Rain = 0
KASR 132100Z 15009KT 30/14 A3006 RMK A01 T03040135  RH  036%=      5-min Rain = 0
KASR 132105Z 16010G15KT 31/14 A3006 RMK A01 T03080138  RH  036%=      5-min Rain = 0
KASR 132110Z 15008KT 31/14 A3006 RMK A01 T03060138  RH  037%=      5-min Rain = 0
KASR 132115Z 15010G17KT 31/14 A3006 RMK A01 T03090141  RH  037%=      5-min Rain = 0
KASR 132120Z 17010G15KT 31/14 A3006 RMK A01 T03060137  RH  036%=      5-min Rain = 0
KASR 132125Z 16008G14KT 31/14 A3005 RMK A01 T03080141  RH  037%=      5-min Rain = 0
KASR 132130Z 14009KT 31/14 A3005 RMK A01 T03070139  RH  036%=      5-min Rain = 0
KASR 132135Z 16010G16KT 31/14 A3005 RMK A01 T03070141  RH  037%=      5-min Rain = 0
KASR 132140Z 16010G15KT 31/14 A3005 RMK A01 T03080142  RH  037%=      5-min Rain = 0
KASR 132145Z 15007G15KT 31/15 A3004 RMK A01 T03110147  RH  038%=      5-min Rain = 0
KASR 132150Z 17011KT 31/14 A3004 RMK A01 T03090142  RH  037%=      5-min Rain = 0
KASR 132155Z 15011G17KT 31/14 A3004 RMK A01 T03060140  RH  037%=      5-min Rain = 0
KASR 132200Z 14010KT 31/15 A3003 RMK A01 T03060145  RH  038%=      5-min Rain = 0
KASR 132205Z 16011G16KT 31/14 A3003 RMK A01 T03090144  RH  038%=      5-min Rain = 0
KASR 132210Z 16011KT 31/14 A3003 RMK A01 T03060142  RH  038%=      5-min Rain = 0
KASR 132215Z 15010KT 31/14 A3002 RMK A01 T03060144  RH  038%=      5-min Rain = 0
KASR 132220Z 15009KT 31/15 A3002 RMK A01 T03080148  RH  039%=      5-min Rain = 0
KASR 132225Z 15011G18KT 31/15 A3002 RMK A01 T03080148  RH  039%=      5-min Rain = 0
KASR 132230Z 15011KT 31/15 A3002 RMK A01 T03070146  RH  039%=      5-min Rain = 0
KASR 132235Z 16012G17KT 31/15 A3002 RMK A01 T03070148  RH  039%=      5-min Rain = 0
KASR 132240Z 15010G15KT 31/15 A3001 RMK A01 T03060148  RH  039%=      5-min Rain = 0
KASR 132245Z 16011G16KT 31/15 A3001 RMK A01 T03060146  RH  039%=      5-min Rain = 0
KASR 132250Z 15013KT 31/15 A3001 RMK A01 T03050146  RH  039%=      5-min Rain = 0
KASR 132255Z 16010KT 31/15 A30 RMK A01 T03060149  RH  039%=      5-min Rain = 0
KASR 132300Z 16010KT 31/15 A30 RMK A01 T03070154  RH  040%=      5-min Rain = 0
KASR 132305Z 16011G16KT 31/15 A30 RMK A01 T03070151  RH  040%=      5-min Rain = 0
KASR 132310Z 16010G16KT 31/15 A30 RMK A01 T03060153  RH  040%=      5-min Rain = 0
KASR 132315Z 16012G17KT 31/15 A30 RMK A01 T03060152  RH  040%=      5-min Rain = 0
KASR 132320Z 15010KT 31/15 A30 RMK A01 T03050150  RH  040%=      5-min Rain = 0
KASR 132325Z 16010G15KT 31/15 A2999 RMK A01 T03050152  RH  040%=      5-min Rain = 0
KASR 132330Z 15012G17KT 30/15 A2999 RMK A01 T03040150  RH  040%=      5-min Rain = 0
KASR 132335Z 15010KT 30/15 A2999 RMK A01 T03030152  RH  041%=      5-min Rain = 0
KASR 132340Z 16011KT 30/15 A2999 RMK A01 T03030151  RH  041%=      5-min Rain = 0
KASR 132345Z 16011G16KT 30/15 A2998 RMK A01 T03020152  RH  041%=      5-min Rain = 0
KASR 132350Z 16009G14KT 30/16 A2998 RMK A01 T03010156  RH  043%=      5-min Rain = 0
KASR 132355Z 15010G15KT 30/16 A2998 RMK A01 T03010157  RH  043%=      5-min Rain = 0
KASR 140000Z 15011G17KT 30/15 A2998 RMK A01 T02990152  RH  042%=      5-min Rain = 0
KASR 140005Z 15010G16KT 30/15 A2998 RMK A01 T02990154  RH  042%=      5-min Rain = 0
KASR 140010Z 16012G18KT 30/16 A2998 RMK A01 T02980155  RH  043%=      5-min Rain = 0
KASR 140015Z 15009KT 30/16 A2998 RMK A01 T02970158  RH  044%=      5-min Rain = 0
KASR 140020Z 15010G15KT 30/15 A2998 RMK A01 T02960154  RH  043%=      5-min Rain = 0
KASR 140025Z 15010KT 30/15 A2998 RMK A01 T02950150  RH  042%=      5-min Rain = 0
KASR 140030Z 14010KT 29/15 A2998 RMK A01 T02940149  RH  042%=      5-min Rain = 0
KASR 140035Z 15009KT 29/15 A2998 RMK A01 T02930150  RH  043%=      5-min Rain = 0
KASR 140040Z 15009KT 29/15 A2997 RMK A01 T02900151  RH  044%=      5-min Rain = 0
KASR 140045Z 14010G16KT 29/15 A2998 RMK A01 T02890149  RH  043%=      5-min Rain = 0
KASR 140050Z 14010KT 29/15 A2997 RMK A01 T02870145  RH  043%=      5-min Rain = 0
KASR 140055Z 14008KT 28/15 A2997 RMK A01 T02830146  RH  044%=      5-min Rain = 0
KASR 140100Z 14008KT 28/15 A2997 RMK A01 T02790145  RH  045%=      5-min Rain = 0
KASR 140105Z 14007G12KT 28/15 A2998 RMK A01 T02760146  RH  046%=      5-min Rain = 0
KASR 140110Z 13006KT 27/15 A2998 RMK A01 T02730148  RH  047%=      5-min Rain = 0
KASR 140115Z 13007KT 27/15 A2998 RMK A01 T02680147  RH  048%=      5-min Rain = 0
KASR 140120Z 13007KT 27/14 A2997 RMK A01 T02650144  RH  048%=      5-min Rain = 0
KASR 140125Z 13006KT 26/14 A2997 RMK A01 T02630144  RH  049%=      5-min Rain = 0
KASR 140130Z 13006KT 26/15 A2997 RMK A01 T02600145  RH  050%=      5-min Rain = 0
KASR 140135Z 13006KT 26/15 A2998 RMK A01 T02580145  RH  051%=      5-min Rain = 0
KASR 140140Z 13006KT 26/15 A2997 RMK A01 T02550146  RH  052%=      5-min Rain = 0
KASR 140145Z 13007KT 25/15 A2997 RMK A01 T02540145  RH  052%=      5-min Rain = 0
KASR 140150Z 13006KT 25/15 A2997 RMK A01 T02520146  RH  053%=      5-min Rain = 0
KASR 140155Z 13007KT 25/15 A2997 RMK A01 T02490146  RH  054%=      5-min Rain = 0
KASR 140200Z 13007KT 25/15 A2997 RMK A01 T02470145  RH  054%=      5-min Rain = 0
KASR 140205Z 13007KT 25/14 A2997 RMK A01 T02460144  RH  054%=      5-min Rain = 0
KASR 140210Z 13008KT 25/14 A2997 RMK A01 T02470142  RH  053%=      5-min Rain = 0
KASR 140215Z 14008KT 25/14 A2997 RMK A01 T02470141  RH  053%=      5-min Rain = 0
KASR 140220Z 14008KT 25/14 A2997 RMK A01 T02460139  RH  052%=      5-min Rain = 0
KASR 140225Z 13008G13KT 25/14 A2996 RMK A01 T02470138  RH  052%=      5-min Rain = 0
KASR 140230Z 14009KT 25/14 A2996 RMK A01 T02470136  RH  051%=      5-min Rain = 0
KASR 140235Z 13009KT 25/14 A2996 RMK A01 T02460137  RH  052%=      5-min Rain = 0
KASR 140240Z 14008KT 25/14 A2996 RMK A01 T02450137  RH  052%=      5-min Rain = 0
KASR 140245Z 14008KT 24/14 A2996 RMK A01 T02440137  RH  052%=      5-min Rain = 0
KASR 140250Z 13008G13KT 24/14 A2996 RMK A01 T02440136  RH  052%=      5-min Rain = 0
KASR 140255Z 14008KT 24/14 A2996 RMK A01 T02440137  RH  052%=      5-min Rain = 0
KASR 140300Z 14008G13KT 24/14 A2996 RMK A01 T02430137  RH  053%=      5-min Rain = 0
KASR 140305Z 13007KT 24/14 A2997 RMK A01 T02410139  RH  054%=      5-min Rain = 0
KASR 140310Z 13008KT 24/14 A2997 RMK A01 T02410138  RH  054%=      5-min Rain = 0
KASR 140315Z 13007KT 24/14 A2998 RMK A01 T02400139  RH  054%=      5-min Rain = 0
KASR 140320Z 13007KT 24/14 A2998 RMK A01 T02380140  RH  055%=      5-min Rain = 0
KASR 140325Z 13007KT 24/14 A2998 RMK A01 T02360140  RH  056%=      5-min Rain = 0
KASR 140330Z 13008KT 24/14 A2998 RMK A01 T02360140  RH  056%=      5-min Rain = 0
KASR 140335Z 13007G12KT 24/14 A2998 RMK A01 T02350140  RH  057%=      5-min Rain = 0
KASR 140340Z 13007KT 23/14 A2998 RMK A01 T02340141  RH  057%=      5-min Rain = 0
KASR 140345Z 13007KT 23/14 A2999 RMK A01 T02330141  RH  058%=      5-min Rain = 0
KASR 140350Z 12007KT 23/14 A2999 RMK A01 T02310141  RH  058%=      5-min Rain = 0
KASR 140355Z 13007KT 23/14 A2999 RMK A01 T02310140  RH  058%=      5-min Rain = 0
KASR 140400Z 13007KT 23/14 A2999 RMK A01 T02300140  RH  058%=      5-min Rain = 0
KASR 140405Z 13007G12KT 23/14 A2999 RMK A01 T02300140  RH  058%=      5-min Rain = 0
KASR 140410Z 13008KT 23/14 A2999 RMK A01 T02300140  RH  058%=      5-min Rain = 0
KASR 140415Z 14009G15KT 23/14 A2999 RMK A01 T02290140  RH  058%=      5-min Rain = 0
KASR 140420Z 14009KT 23/14 A30 RMK A01 T02300139  RH  058%=      5-min Rain = 0
KASR 140425Z 13009KT 23/14 A30 RMK A01 T02290139  RH  058%=      5-min Rain = 0
KASR 140430Z 13007G12KT 23/14 A30 RMK A01 T02270140  RH  059%=      5-min Rain = 0
KASR 140435Z 13008KT 23/14 A30 RMK A01 T02260139  RH  059%=      5-min Rain = 0
KASR 140440Z 13007KT 23/14 A30 RMK A01 T02250140  RH  060%=      5-min Rain = 0
KASR 140445Z 13007KT 22/14 A30 RMK A01 T02240140  RH  060%=      5-min Rain = 0
KASR 140450Z 13007KT 22/14 A30 RMK A01 T02230140  RH  060%=      5-min Rain = 0
KASR 140455Z 14007KT 22/14 A30 RMK A01 T02220140  RH  061%=      5-min Rain = 0

Page generated in 0.0095 seconds.